createdAt,value
2022-08-26T00:01:52.337Z,9.70
2022-08-26T00:04:20.064Z,9.65
2022-08-26T00:06:48.997Z,10.32
2022-08-26T00:09:16.876Z,11.18
2022-08-26T00:11:44.844Z,11.73
2022-08-26T00:14:13.644Z,10.48
2022-08-26T00:16:48.103Z,10.25
2022-08-26T00:19:17.803Z,9.85
2022-08-26T00:21:45.953Z,11.10
2022-08-26T00:24:15.164Z,10.80
2022-08-26T00:26:43.344Z,9.70
2022-08-26T00:29:11.007Z,10.40
2022-08-26T00:31:38.951Z,11.25
2022-08-26T00:34:09.570Z,11.00
2022-08-26T00:36:37.800Z,11.00
2022-08-26T00:39:07.998Z,11.05
2022-08-26T00:41:38.461Z,9.73
2022-08-26T00:44:06.811Z,11.32
2022-08-26T00:46:36.017Z,10.27
2022-08-26T00:49:12.022Z,10.52
2022-08-26T00:51:43.370Z,10.50
2022-08-26T00:54:11.129Z,12.00
2022-08-26T00:56:43.092Z,11.90
2022-08-26T00:59:12.820Z,10.10
2022-08-26T01:01:42.246Z,11.48
2022-08-26T01:04:14.984Z,11.95
2022-08-26T01:06:42.635Z,12.25
2022-08-26T01:09:12.182Z,12.27
2022-08-26T01:11:41.605Z,11.50
2022-08-26T01:14:09.802Z,12.13
2022-08-26T01:16:37.594Z,11.65
2022-08-26T01:19:08.779Z,11.20
2022-08-26T01:21:40.581Z,11.40
2022-08-26T01:24:10.929Z,10.63
2022-08-26T01:26:41.214Z,12.25
2022-08-26T01:29:12.762Z,10.52
2022-08-26T01:31:42.324Z,11.13
2022-08-26T01:34:13.246Z,11.32
2022-08-26T01:36:41.058Z,11.43
2022-08-26T01:39:11.340Z,11.40
2022-08-26T01:41:39.613Z,10.98
2022-08-26T01:44:09.698Z,11.25
2022-08-26T01:46:37.687Z,11.13
2022-08-26T01:49:06.722Z,11.63
2022-08-26T01:51:37.023Z,10.55
2022-08-26T01:54:05.152Z,11.05
2022-08-26T01:56:36.453Z,10.57
2022-08-26T01:59:06.724Z,10.57
2022-08-26T02:01:34.843Z,11.88
2022-08-26T02:04:07.102Z,11.43
2022-08-26T02:06:36.708Z,12.10
2022-08-26T02:09:05.029Z,12.23
2022-08-26T02:11:34.452Z,12.68
2022-08-26T02:14:06.043Z,10.90
2022-08-26T02:16:37.661Z,12.00
2022-08-26T02:19:05.852Z,11.50
2022-08-26T02:21:36.276Z,10.93
2022-08-26T02:24:09.395Z,11.05
2022-08-26T02:26:39.515Z,11.32
2022-08-26T02:29:08.236Z,11.98
2022-08-26T02:31:36.124Z,12.90
2022-08-26T02:34:11.368Z,11.50
2022-08-26T02:36:39.779Z,10.85
2022-08-26T02:39:07.509Z,12.15
2022-08-26T02:41:36.228Z,12.25
2022-08-26T02:44:14.221Z,11.73
2022-08-26T02:46:42.875Z,11.77
2022-08-26T02:49:15.012Z,10.95
2022-08-26T02:51:43.198Z,11.55
2022-08-26T02:54:10.784Z,11.23
2022-08-26T02:56:38.700Z,11.70
2022-08-26T02:59:06.872Z,12.20
2022-08-26T03:01:37.002Z,12.85
2022-08-26T03:04:05.766Z,10.75
2022-08-26T03:06:33.541Z,11.38
2022-08-26T03:09:01.715Z,11.73
2022-08-26T03:11:33.000Z,11.35
2022-08-26T03:14:03.428Z,12.30
2022-08-26T03:16:32.658Z,12.63
2022-08-26T03:19:02.833Z,11.48
2022-08-26T03:21:31.445Z,11.40
2022-08-26T03:23:59.708Z,11.50
2022-08-26T03:26:29.098Z,12.63
2022-08-26T03:29:15.049Z,11.48
2022-08-26T03:31:42.867Z,12.95
2022-08-26T03:34:12.003Z,12.00
2022-08-26T03:36:39.646Z,11.95
2022-08-26T03:39:09.489Z,12.07
2022-08-26T03:41:37.646Z,11.65
2022-08-26T03:44:05.358Z,11.95
2022-08-26T03:46:33.946Z,12.57
2022-08-26T03:49:02.120Z,12.05
2022-08-26T03:51:31.647Z,13.07
2022-08-26T03:54:03.040Z,12.18
2022-08-26T03:56:30.991Z,12.25
2022-08-26T03:59:00.364Z,12.27
2022-08-26T04:01:28.551Z,12.23
2022-08-26T04:04:00.283Z,11.95
2022-08-26T04:06:29.513Z,13.05
2022-08-26T04:08:59.949Z,11.32
2022-08-26T04:11:30.347Z,12.20
2022-08-26T04:14:00.651Z,12.95
2022-08-26T04:16:29.158Z,12.07
2022-08-26T04:18:56.940Z,12.75
2022-08-26T04:21:24.914Z,12.68
2022-08-26T04:23:52.664Z,12.23
2022-08-26T04:26:22.380Z,12.73
2022-08-26T04:28:50.564Z,13.75
2022-08-26T04:31:19.018Z,13.95
2022-08-26T04:33:47.821Z,12.32
2022-08-26T04:36:19.958Z,12.85
2022-08-26T04:38:48.084Z,11.77
2022-08-26T04:41:17.031Z,12.95
2022-08-26T04:43:46.976Z,19.50
2022-08-26T04:46:17.199Z,14.02
2022-08-26T04:48:45.052Z,12.38
2022-08-26T04:51:12.918Z,13.60
2022-08-26T04:53:40.511Z,12.35
2022-08-26T04:56:08.552Z,12.93
2022-08-26T04:58:38.193Z,13.52
2022-08-26T05:01:08.294Z,12.30
2022-08-26T05:03:36.929Z,11.88
2022-08-26T05:06:04.892Z,12.38
2022-08-26T05:08:32.727Z,13.05
2022-08-26T05:11:00.369Z,14.13
2022-08-26T05:13:28.649Z,13.35
2022-08-26T05:16:01.123Z,13.07
2022-08-26T05:18:31.168Z,13.02
2022-08-26T05:20:58.793Z,13.88
2022-08-26T05:23:26.373Z,12.80
2022-08-26T05:25:59.356Z,13.25
2022-08-26T05:28:29.008Z,12.15
2022-08-26T05:30:56.981Z,13.68
2022-08-26T05:33:24.873Z,13.27
2022-08-26T05:35:53.981Z,11.93
2022-08-26T05:38:22.975Z,11.30
2022-08-26T05:40:52.793Z,12.13
2022-08-26T05:43:21.344Z,10.30
2022-08-26T05:45:49.868Z,11.13
2022-08-26T05:48:18.136Z,11.52
2022-08-26T05:50:47.085Z,10.98
2022-08-26T05:53:17.680Z,10.13
2022-08-26T05:55:46.399Z,10.68
2022-08-26T05:58:14.609Z,10.32
2022-08-26T06:00:45.261Z,10.65
2022-08-26T06:03:12.882Z,9.40
2022-08-26T06:05:41.107Z,10.63
2022-08-26T06:08:15.084Z,9.43
2022-08-26T06:10:48.155Z,8.85
2022-08-26T06:13:18.303Z,9.52
2022-08-26T06:15:46.945Z,9.85
2022-08-26T06:18:15.461Z,9.95
2022-08-26T06:20:44.144Z,9.30
2022-08-26T06:23:43.891Z,8.35
2022-08-26T06:26:13.498Z,9.18
2022-08-26T06:28:41.123Z,9.00
2022-08-26T06:31:13.156Z,9.35
2022-08-26T06:33:40.875Z,8.38
2022-08-26T06:36:08.599Z,8.52
2022-08-26T06:38:37.144Z,8.65
2022-08-26T06:41:04.761Z,9.32
2022-08-26T06:43:33.729Z,10.23
2022-08-26T06:46:02.480Z,9.77
2022-08-26T06:48:32.471Z,9.63
2022-08-26T06:51:04.817Z,10.13
2022-08-26T06:53:33.304Z,10.63
2022-08-26T06:56:03.764Z,9.82
2022-08-26T06:58:31.497Z,9.55
2022-08-26T07:01:09.089Z,9.05
2022-08-26T07:03:39.582Z,8.98
2022-08-26T07:06:07.900Z,8.25
2022-08-26T07:08:35.864Z,8.32
2022-08-26T07:11:05.349Z,10.13
2022-08-26T07:13:34.703Z,9.25
2022-08-26T07:16:05.068Z,9.95
2022-08-26T07:18:34.342Z,8.68
2022-08-26T07:21:02.438Z,8.27
2022-08-26T07:23:30.533Z,8.32
2022-08-26T07:25:58.127Z,7.93
2022-08-26T07:28:26.368Z,7.75
2022-08-26T07:30:53.978Z,9.10
2022-08-26T07:33:22.939Z,7.72
2022-08-26T07:35:50.883Z,8.73
2022-08-26T07:38:18.628Z,8.10
2022-08-26T07:40:47.319Z,8.30
2022-08-26T07:43:15.657Z,8.57
2022-08-26T07:45:44.581Z,8.68
2022-08-26T07:48:12.232Z,8.13
2022-08-26T07:50:49.468Z,8.80
2022-08-26T07:53:19.424Z,8.23
2022-08-26T07:55:47.119Z,8.02
2022-08-26T07:58:14.707Z,8.18
2022-08-26T08:00:43.591Z,9.77
2022-08-26T08:03:12.276Z,8.50
2022-08-26T08:05:43.360Z,8.40
2022-08-26T08:08:21.860Z,7.68
2022-08-26T08:10:55.841Z,7.68
2022-08-26T08:13:24.234Z,8.85
2022-08-26T08:15:52.210Z,7.95
2022-08-26T08:18:20.584Z,8.63
2022-08-26T08:20:59.073Z,9.88
2022-08-26T08:23:33.239Z,8.55
2022-08-26T08:26:01.562Z,8.27
2022-08-26T08:28:29.300Z,9.25
2022-08-26T08:30:57.714Z,7.80
2022-08-26T08:33:26.063Z,9.55
2022-08-26T08:35:55.345Z,9.35
2022-08-26T08:38:23.045Z,8.80
2022-08-26T08:40:51.956Z,8.60
2022-08-26T08:43:24.637Z,7.40
2022-08-26T08:45:54.965Z,8.13
2022-08-26T08:48:27.732Z,7.47
2022-08-26T08:50:59.899Z,7.40
2022-08-26T08:53:32.990Z,7.45
2022-08-26T08:56:05.368Z,8.23
2022-08-26T08:58:40.101Z,8.10
2022-08-26T09:01:11.629Z,8.40
2022-08-26T09:03:43.526Z,7.35
2022-08-26T09:06:18.838Z,7.45
2022-08-26T09:08:47.834Z,7.60
2022-08-26T09:11:18.613Z,7.60
2022-08-26T09:13:48.949Z,7.78
2022-08-26T09:16:19.169Z,8.40
2022-08-26T09:18:54.072Z,8.10
2022-08-26T09:21:25.292Z,7.32
2022-08-26T09:23:53.704Z,8.20
2022-08-26T09:26:25.886Z,7.70
2022-08-26T09:28:57.255Z,7.28
2022-08-26T09:31:27.378Z,7.88
2022-08-26T09:34:06.089Z,8.27
2022-08-26T09:36:41.107Z,8.43
2022-08-26T09:39:25.259Z,8.38
2022-08-26T09:42:02.619Z,8.15
2022-08-26T09:44:30.548Z,8.55
2022-08-26T09:47:00.772Z,8.88
2022-08-26T09:49:35.577Z,8.43
2022-08-26T09:52:07.175Z,9.00
2022-08-26T09:54:35.416Z,8.82
2022-08-26T09:57:17.845Z,9.00
2022-08-26T09:59:45.744Z,8.45
2022-08-26T10:02:34.410Z,8.50
2022-08-26T10:05:09.213Z,8.48
2022-08-26T10:07:44.436Z,7.80
2022-08-26T10:10:14.896Z,8.23
2022-08-26T10:12:48.528Z,8.32
2022-08-26T10:15:16.712Z,8.90
2022-08-26T10:17:47.357Z,8.45
2022-08-26T10:20:23.309Z,8.40
2022-08-26T10:22:56.415Z,8.23
2022-08-26T10:25:26.004Z,7.75
2022-08-26T10:27:55.779Z,8.65
2022-08-26T10:30:27.248Z,7.32
2022-08-26T10:32:57.810Z,8.27
2022-08-26T10:35:26.983Z,7.82
2022-08-26T10:37:59.200Z,7.45
2022-08-26T10:40:28.466Z,7.32
2022-08-26T10:42:56.956Z,8.13
2022-08-26T10:45:26.923Z,7.13
2022-08-26T10:47:56.712Z,7.40
2022-08-26T10:50:26.587Z,7.45
2022-08-26T10:53:00.452Z,7.80
2022-08-26T10:55:34.863Z,7.95
2022-08-26T10:58:09.171Z,7.45
2022-08-26T11:01:00.712Z,7.68
2022-08-26T11:03:32.428Z,8.35
2022-08-26T11:06:16.649Z,7.40
2022-08-26T11:08:47.853Z,8.50
2022-08-26T11:11:30.413Z,7.65
2022-08-26T11:14:02.818Z,6.70
2022-08-26T11:16:35.855Z,7.05
2022-08-26T11:19:11.548Z,7.82
2022-08-26T11:21:44.080Z,7.15
2022-08-26T11:24:26.995Z,7.68
2022-08-26T11:26:57.018Z,7.60
2022-08-26T11:29:39.872Z,7.53
2022-08-26T11:32:07.451Z,7.22
2022-08-26T11:34:56.304Z,7.35
2022-08-26T11:37:25.480Z,7.38
2022-08-26T11:39:57.271Z,7.47
2022-08-26T11:42:31.037Z,7.50
2022-08-26T11:44:59.859Z,7.53
2022-08-26T11:47:32.495Z,7.15
2022-08-26T11:50:11.171Z,7.10
2022-08-26T11:52:39.057Z,7.22
2022-08-26T11:55:09.150Z,7.30
2022-08-26T11:57:44.896Z,7.07
2022-08-26T12:00:22.290Z,7.22
2022-08-26T12:02:50.829Z,7.82
2022-08-26T12:05:22.864Z,7.70
2022-08-26T12:07:53.115Z,7.95
2022-08-26T12:10:29.742Z,7.18
2022-08-26T12:12:59.959Z,7.32
2022-08-26T12:15:29.655Z,7.50
2022-08-26T12:17:57.936Z,7.28
2022-08-26T12:20:45.755Z,7.65
2022-08-26T12:23:23.821Z,7.93
2022-08-26T12:25:52.665Z,8.18
2022-08-26T12:28:25.131Z,8.18
2022-08-26T12:31:03.804Z,7.95
2022-08-26T12:33:36.962Z,7.63
2022-08-26T12:36:05.099Z,8.45
2022-08-26T12:38:33.854Z,7.75
2022-08-26T12:41:01.936Z,7.82
2022-08-26T12:43:41.640Z,8.00
2022-08-26T12:46:11.423Z,7.65
2022-08-26T12:48:41.166Z,7.82
2022-08-26T12:51:13.994Z,8.82
2022-08-26T12:53:43.122Z,8.38
2022-08-26T12:56:22.478Z,8.07
2022-08-26T12:59:02.750Z,8.30
2022-08-26T13:01:37.903Z,8.10
2022-08-26T13:04:06.981Z,8.05
2022-08-26T13:06:34.929Z,8.10
2022-08-26T13:09:06.172Z,8.10
2022-08-26T13:11:35.568Z,8.38
2022-08-26T13:14:07.065Z,8.45
2022-08-26T13:16:35.412Z,7.32
2022-08-26T13:19:04.523Z,7.50
2022-08-26T13:21:37.694Z,7.60
2022-08-26T13:24:06.768Z,7.82
2022-08-26T13:26:35.081Z,8.05
2022-08-26T13:29:09.594Z,8.40
2022-08-26T13:31:39.546Z,7.93
2022-08-26T13:34:08.285Z,7.40
2022-08-26T13:36:35.925Z,7.78
2022-08-26T13:39:03.684Z,8.10
2022-08-26T13:41:32.039Z,8.07
2022-08-26T13:44:00.223Z,7.75
2022-08-26T13:46:29.705Z,8.00
2022-08-26T13:48:57.913Z,9.20
2022-08-26T13:51:26.479Z,8.27
2022-08-26T13:53:54.731Z,8.38
2022-08-26T13:56:22.809Z,9.00
2022-08-26T13:58:50.614Z,8.52
2022-08-26T14:01:19.084Z,8.93
2022-08-26T14:03:48.119Z,10.85
2022-08-26T14:06:16.052Z,9.75
2022-08-26T14:08:43.995Z,8.55
2022-08-26T14:11:11.592Z,8.25
2022-08-26T14:13:39.425Z,8.98
2022-08-26T14:16:10.068Z,8.75
2022-08-26T14:18:41.779Z,9.15
2022-08-26T14:21:13.080Z,8.38
2022-08-26T14:23:41.401Z,8.95
2022-08-26T14:26:14.304Z,8.13
2022-08-26T14:28:56.899Z,6.90
2022-08-26T14:31:26.685Z,8.02
2022-08-26T14:34:01.092Z,7.40
2022-08-26T14:36:31.986Z,7.07
2022-08-26T14:39:01.800Z,7.70
2022-08-26T14:41:30.192Z,7.00
2022-08-26T14:44:00.000Z,7.90
2022-08-26T14:46:29.148Z,7.68
2022-08-26T14:49:01.586Z,6.60
2022-08-26T14:51:31.803Z,7.63
2022-08-26T14:54:14.482Z,7.95
2022-08-26T14:56:44.908Z,7.22
2022-08-26T14:59:12.696Z,7.32
2022-08-26T15:01:40.361Z,7.35
2022-08-26T15:04:08.252Z,17.33
2022-08-26T15:06:37.880Z,7.15
2022-08-26T15:09:06.149Z,7.53
2022-08-26T15:11:34.487Z,7.95
2022-08-26T15:14:02.543Z,7.68
2022-08-26T15:16:30.403Z,7.90
2022-08-26T15:18:58.435Z,7.85
2022-08-26T15:21:26.979Z,8.10
2022-08-26T15:23:56.340Z,7.38
2022-08-26T15:26:24.966Z,7.03
2022-08-26T15:28:52.676Z,7.15
2022-08-26T15:31:21.113Z,6.57
2022-08-26T15:33:49.369Z,6.13
2022-08-26T15:36:17.366Z,6.20
2022-08-26T15:38:51.107Z,6.68
2022-08-26T15:41:20.282Z,5.45
2022-08-26T15:43:49.005Z,5.60
2022-08-26T15:46:20.452Z,5.65
2022-08-26T15:48:48.323Z,5.80
2022-08-26T15:51:20.734Z,7.13
2022-08-26T15:53:50.620Z,6.88
2022-08-26T15:56:18.367Z,6.95
2022-08-26T15:58:47.803Z,6.93
2022-08-26T16:01:15.468Z,6.80
2022-08-26T16:03:55.719Z,6.65
2022-08-26T16:06:25.692Z,7.25
2022-08-26T16:08:53.385Z,7.05
2022-08-26T16:11:21.358Z,6.47
2022-08-26T16:13:51.164Z,6.78
2022-08-26T16:16:19.729Z,6.45
2022-08-26T16:18:49.512Z,6.80
2022-08-26T16:21:17.556Z,6.75
2022-08-26T16:23:45.564Z,8.95
2022-08-26T16:26:14.663Z,7.22
2022-08-26T16:28:43.626Z,7.50
2022-08-26T16:31:13.164Z,7.63
2022-08-26T16:33:41.002Z,6.85
2022-08-26T16:36:09.431Z,10.32
2022-08-26T16:38:38.300Z,7.60
2022-08-26T16:41:06.622Z,8.40
2022-08-26T16:43:34.600Z,7.90
2022-08-26T16:46:02.543Z,7.72
2022-08-26T16:48:31.506Z,7.55
2022-08-26T16:50:59.183Z,7.40
2022-08-26T16:53:26.799Z,6.72
2022-08-26T16:55:55.040Z,7.95
2022-08-26T16:58:22.694Z,7.80
2022-08-26T17:00:50.316Z,7.63
2022-08-26T17:03:17.916Z,7.70
2022-08-26T17:05:46.950Z,7.78
2022-08-26T17:08:21.808Z,7.70
2022-08-26T17:10:56.428Z,7.20
2022-08-26T17:13:35.381Z,7.43
2022-08-26T17:16:04.818Z,7.40
2022-08-26T17:18:33.279Z,7.30
2022-08-26T17:21:02.996Z,9.68
2022-08-26T17:23:32.223Z,9.38
2022-08-26T17:26:00.004Z,8.00
2022-08-26T17:28:36.559Z,8.05
2022-08-26T17:31:04.410Z,8.20
2022-08-26T17:33:32.738Z,9.70
2022-08-26T17:36:02.871Z,10.80
2022-08-26T17:38:30.852Z,10.85
2022-08-26T17:40:58.725Z,13.45
2022-08-26T17:43:27.297Z,12.40
2022-08-26T17:45:58.209Z,15.55
2022-08-26T17:48:32.319Z,15.25
2022-08-26T17:51:00.281Z,16.00
2022-08-26T17:53:29.339Z,15.43
2022-08-26T17:55:57.074Z,15.55
2022-08-26T17:58:24.700Z,16.25
2022-08-26T18:00:54.521Z,14.60
2022-08-26T18:03:22.248Z,16.23
2022-08-26T18:05:51.156Z,15.98
2022-08-26T18:08:18.893Z,16.08
2022-08-26T18:10:48.163Z,16.38
2022-08-26T18:13:16.546Z,17.70
2022-08-26T18:15:45.312Z,18.02
2022-08-26T18:18:13.199Z,20.08
2022-08-26T18:20:42.269Z,18.45
2022-08-26T18:23:10.372Z,17.02
2022-08-26T18:25:40.514Z,17.25
2022-08-26T18:28:10.261Z,18.70
2022-08-26T18:30:38.081Z,19.05
2022-08-26T18:33:05.855Z,17.58
2022-08-26T18:35:33.586Z,18.20
2022-08-26T18:38:01.428Z,17.45
2022-08-26T18:40:39.426Z,15.85
2022-08-26T18:43:07.104Z,16.50
2022-08-26T18:45:36.316Z,16.67
2022-08-26T18:48:04.449Z,17.52
2022-08-26T18:50:32.155Z,18.73
2022-08-26T18:52:59.987Z,17.67
2022-08-26T18:55:27.619Z,17.40
2022-08-26T18:57:55.241Z,17.77
2022-08-26T19:00:23.620Z,19.13
2022-08-26T19:02:55.305Z,19.98
2022-08-26T19:05:24.053Z,20.10
2022-08-26T19:07:52.060Z,18.85
2022-08-26T19:10:19.995Z,20.08
2022-08-26T19:12:51.806Z,20.05
2022-08-26T19:15:20.286Z,20.52
2022-08-26T19:17:48.117Z,19.90
2022-08-26T19:20:17.188Z,20.25
2022-08-26T19:22:45.922Z,19.13
2022-08-26T19:25:14.186Z,21.77
2022-08-26T19:27:41.991Z,20.48
2022-08-26T19:30:10.294Z,21.60
2022-08-26T19:32:38.248Z,21.02
2022-08-26T19:35:08.809Z,21.42
2022-08-26T19:37:38.208Z,21.30
2022-08-26T19:40:06.649Z,19.65
2022-08-26T19:42:34.717Z,19.10
2022-08-26T19:45:24.812Z,21.67
2022-08-26T19:47:53.640Z,20.23
2022-08-26T19:50:21.947Z,19.55
2022-08-26T19:52:50.869Z,19.98
2022-08-26T19:55:19.552Z,18.25
2022-08-26T19:57:47.165Z,20.02
2022-08-26T20:00:16.148Z,18.73
2022-08-26T20:02:44.046Z,19.40
2022-08-26T20:05:12.858Z,18.77
2022-08-26T20:07:40.516Z,19.40
2022-08-26T20:10:12.363Z,18.73
2022-08-26T20:12:41.519Z,19.48
2022-08-26T20:15:09.848Z,19.25
2022-08-26T20:17:37.490Z,19.20
2022-08-26T20:20:33.436Z,20.60
2022-08-26T20:23:01.882Z,19.88
2022-08-26T20:25:32.416Z,18.60
2022-08-26T20:28:00.057Z,18.88
2022-08-26T20:30:27.708Z,19.58
2022-08-26T20:32:55.436Z,19.95
2022-08-26T20:35:23.855Z,19.05
2022-08-26T20:37:51.466Z,19.15
2022-08-26T20:40:19.154Z,19.52
2022-08-26T20:42:48.265Z,19.33
2022-08-26T20:45:15.912Z,20.88
2022-08-26T20:47:44.075Z,18.48
2022-08-26T20:50:11.686Z,19.10
2022-08-26T20:52:39.369Z,18.75
2022-08-26T20:55:07.542Z,19.05
2022-08-26T20:57:35.477Z,19.25
2022-08-26T21:00:05.225Z,19.33
2022-08-26T21:02:32.940Z,19.15
2022-08-26T21:05:00.719Z,19.15
2022-08-26T21:07:28.565Z,18.27
2022-08-26T21:09:57.665Z,18.42
2022-08-26T21:12:26.543Z,20.90
2022-08-26T21:14:54.864Z,18.95
2022-08-26T21:17:23.829Z,19.83
2022-08-26T21:19:51.455Z,18.23
2022-08-26T21:22:19.144Z,19.27
2022-08-26T21:24:46.720Z,20.33
2022-08-26T21:27:14.599Z,18.65
2022-08-26T21:29:50.723Z,18.17
2022-08-26T21:32:19.741Z,19.63
2022-08-26T21:34:48.789Z,19.20
2022-08-26T21:37:17.125Z,19.20
2022-08-26T21:39:44.961Z,19.80
2022-08-26T21:42:12.609Z,19.65
2022-08-26T21:44:40.261Z,21.02
2022-08-26T21:47:07.914Z,20.17
2022-08-26T21:49:36.267Z,20.35
2022-08-26T21:52:05.650Z,19.52
2022-08-26T21:54:33.405Z,20.27
2022-08-26T21:57:01.135Z,19.45
2022-08-26T21:59:28.911Z,19.10
2022-08-26T22:01:57.107Z,19.70
2022-08-26T22:04:25.191Z,20.27
2022-08-26T22:06:54.264Z,19.50
2022-08-26T22:09:23.864Z,19.33
2022-08-26T22:11:52.402Z,16.98
2022-08-26T22:14:21.898Z,18.13
2022-08-26T22:16:50.669Z,19.45
2022-08-26T22:19:19.886Z,18.98
2022-08-26T22:21:49.359Z,18.15
2022-08-26T22:24:17.338Z,18.83
2022-08-26T22:26:47.116Z,19.63
2022-08-26T22:29:15.047Z,20.38
2022-08-26T22:31:43.347Z,19.17
2022-08-26T22:34:12.657Z,19.58
2022-08-26T22:36:43.718Z,19.83
2022-08-26T22:39:12.766Z,19.60
2022-08-26T22:41:40.487Z,17.85
2022-08-26T22:44:10.282Z,19.40
2022-08-26T22:46:38.780Z,18.58
2022-08-26T22:49:06.836Z,19.17
2022-08-26T22:51:34.458Z,18.25
2022-08-26T22:54:02.245Z,18.85
2022-08-26T22:56:29.910Z,18.70
2022-08-26T22:58:57.560Z,18.58
2022-08-26T23:01:26.677Z,19.00
2022-08-26T23:03:54.491Z,19.13
2022-08-26T23:06:22.081Z,18.73
2022-08-26T23:08:49.744Z,19.15
2022-08-26T23:11:17.840Z,18.58
2022-08-26T23:13:45.500Z,18.42
2022-08-26T23:16:13.511Z,19.95
2022-08-26T23:18:42.991Z,19.75
2022-08-26T23:21:10.749Z,21.27
2022-08-26T23:23:38.811Z,20.45
2022-08-26T23:26:07.540Z,21.60
2022-08-26T23:28:35.563Z,20.42
2022-08-26T23:31:03.423Z,21.55
2022-08-26T23:33:44.940Z,20.15
2022-08-26T23:36:17.821Z,20.90
2022-08-26T23:38:52.443Z,20.92
2022-08-26T23:41:20.650Z,22.42
2022-08-26T23:43:48.231Z,21.38
2022-08-26T23:46:16.291Z,21.23
2022-08-26T23:48:43.935Z,21.40
2022-08-26T23:51:29.515Z,21.58
2022-08-26T23:53:58.513Z,21.13
2022-08-26T23:56:26.758Z,21.67
2022-08-26T23:58:54.578Z,22.13
